Time;durP1;ratioP1;P1;durP2;ratioP2;P2;SDS_P1;SDS_P2;PMS_P1;PMS_P2;Temp;Humidity;BMP_temperature;BMP_pressure;BME280_temperature;BME280_humidity;BME280_pressure;Samples;Min_cycle;Max_cycle;Signal;HPM_P1;HPM_P2
2021/10/11 00:01:11;;;;;;;2.83;0.20;;;11.60;99.90;;;;;;5021191;28;20143;-77
2021/10/11 00:03:37;;;;;;;3.83;0.30;;;11.50;99.90;;;;;;5020605;28;20038;-77
2021/10/11 00:06:02;;;;;;;4.63;0.00;;;11.50;99.90;;;;;;5020265;28;20026;-78
2021/10/11 00:08:28;;;;;;;4.18;0.03;;;11.50;99.90;;;;;;5018706;28;20029;-76
2021/10/11 00:10:53;;;;;;;1.23;0.00;;;11.40;99.90;;;;;;5020260;28;20029;-77
2021/10/11 00:13:20;;;;;;;3.50;0.35;;;11.40;99.90;;;;;;5019432;28;20152;-76
2021/10/11 00:15:45;;;;;;;1.25;0.00;;;11.40;99.90;;;;;;5019695;28;20018;-75
2021/10/11 00:18:11;;;;;;;1.77;0.25;;;11.30;99.90;;;;;;5019959;28;20048;-76
2021/10/11 00:20:36;;;;;;;3.38;0.00;;;11.40;99.90;;;;;;5018613;28;20018;-76
2021/10/11 00:23:02;;;;;;;4.95;0.15;;;11.40;99.90;;;;;;5019589;28;20032;-76
2021/10/11 00:25:28;;;;;;;3.28;0.20;;;11.40;99.90;;;;;;5019656;28;20026;-76
2021/10/11 00:27:53;;;;;;;3.47;0.00;;;11.40;99.90;;;;;;5018113;28;20022;-76
2021/10/11 00:30:19;;;;;;;0.77;0.08;;;11.40;99.90;;;;;;5019114;28;20034;-76
2021/10/11 00:32:47;;;;;;;2.08;0.22;;;11.40;99.90;;;;;;5018004;28;20018;-76
2021/10/11 00:35:13;;;;;;;1.58;0.00;;;11.40;99.90;;;;;;5019599;28;20017;-76
2021/10/11 00:37:39;;;;;;;2.65;0.00;;;11.40;99.90;;;;;;5019201;28;20097;-76
2021/10/11 00:40:06;;;;;;;6.65;0.80;;;11.50;99.90;;;;;;5018309;28;20057;-76
2021/10/11 00:42:33;;;;;;;6.82;0.25;;;11.50;99.90;;;;;;5019469;28;20029;-76
2021/10/11 00:44:59;;;;;;;3.90;0.50;;;11.50;99.90;;;;;;5018466;28;20442;-76
2021/10/11 00:47:24;;;;;;;9.15;0.85;;;11.50;99.90;;;;;;5018088;28;20030;-76
2021/10/11 00:49:50;;;;;;;2.35;0.38;;;11.50;99.90;;;;;;5019349;28;20032;-76
2021/10/11 00:52:16;;;;;;;4.18;0.17;;;11.50;99.90;;;;;;5018533;28;20017;-76
2021/10/11 00:54:42;;;;;;;5.60;0.10;;;11.50;99.90;;;;;;5018175;28;20033;-76
2021/10/11 00:57:10;;;;;;;3.97;0.30;;;11.50;99.90;;;;;;5019135;28;20018;-76
2021/10/11 00:59:36;;;;;;;2.95;0.00;;;11.50;99.90;;;;;;5018625;28;20037;-76
2021/10/11 01:02:02;;;;;;;2.50;0.20;;;11.40;99.90;;;;;;5017334;28;20029;-77
2021/10/11 01:04:28;;;;;;;1.55;0.10;;;11.30;99.90;;;;;;5019038;28;20041;-77
2021/10/11 01:06:54;;;;;;;3.58;0.43;;;11.20;99.90;;;;;;5018519;28;20028;-77
2021/10/11 01:09:20;;;;;;;2.58;0.00;;;11.20;99.90;;;;;;5017563;28;20030;-77
2021/10/11 01:11:49;;;;;;;6.95;0.38;;;11.10;99.90;;;;;;5018747;28;20096;-77
2021/10/11 01:14:16;;;;;;;5.63;0.00;;;11.10;99.90;;;;;;5017644;28;20017;-77
2021/10/11 01:16:42;;;;;;;7.55;1.13;;;11.10;99.90;;;;;;5018900;28;20383;-77
2021/10/11 01:19:08;;;;;;;5.00;0.03;;;11.00;99.90;;;;;;5019077;28;20018;-76
2021/10/11 01:21:34;;;;;;;3.72;0.10;;;11.00;99.90;;;;;;5019108;28;20120;-77
2021/10/11 01:23:59;;;;;;;5.78;0.20;;;11.00;99.90;;;;;;5017239;28;20057;-77
2021/10/11 01:26:38;;;;;;;5.18;0.63;;;11.00;99.90;;;;;;5018304;28;20037;-77
2021/10/11 01:29:04;;;;;;;;;;;11.00;99.90;;;;;;5018056;28;20475;-78
2021/10/11 01:31:30;;;;;;;5.00;0.40;;;10.90;99.90;;;;;;5017484;28;19955;-76
2021/10/11 01:33:56;;;;;;;3.63;0.20;;;10.90;99.90;;;;;;5016766;28;20017;-76
2021/10/11 01:36:21;;;;;;;4.53;0.35;;;10.90;99.90;;;;;;5017961;28;20052;-77
2021/10/11 01:38:47;;;;;;;8.20;0.28;;;10.90;99.90;;;;;;5018363;28;20121;-77
2021/10/11 01:41:13;;;;;;;2.30;0.60;;;10.80;99.90;;;;;;5018363;28;20021;-77
2021/10/11 01:43:38;;;;;;;2.55;0.30;;;10.80;99.90;;;;;;5016844;28;20034;-77
2021/10/11 01:46:04;;;;;;;2.78;0.10;;;10.80;99.90;;;;;;5018637;28;20036;-77
2021/10/11 01:48:29;;;;;;;3.85;0.25;;;10.70;99.90;;;;;;5016947;28;20032;-77
2021/10/11 01:50:55;;;;;;;7.88;0.17;;;10.60;99.90;;;;;;5018581;28;20019;-77
2021/10/11 01:53:20;;;;;;;3.05;0.25;;;10.50;99.90;;;;;;5019225;28;20030;-77
2021/10/11 01:55:46;;;;;;;8.35;0.20;;;10.50;99.90;;;;;;5017748;28;20056;-76
2021/10/11 01:58:11;;;;;;;1.48;0.25;;;10.40;99.90;;;;;;5017758;28;20387;-76
2021/10/11 02:00:37;;;;;;;2.35;0.22;;;10.30;99.90;;;;;;5017365;28;20088;-76
2021/10/11 02:03:06;;;;;;;7.60;0.17;;;10.30;99.90;;;;;;5018600;28;20376;-77
2021/10/11 02:05:33;;;;;;;1.95;0.05;;;10.20;99.90;;;;;;5017931;28;20446;-77
2021/10/11 02:07:58;;;;;;;8.82;0.30;;;10.10;99.90;;;;;;5017409;28;20030;-77
2021/10/11 02:10:24;;;;;;;6.20;0.22;;;10.10;99.90;;;;;;5016376;28;20467;-77
2021/10/11 02:12:50;;;;;;;2.97;0.10;;;10.00;99.90;;;;;;5017803;28;20014;-77
2021/10/11 02:15:16;;;;;;;2.47;0.10;;;9.90;99.90;;;;;;5017648;28;20452;-76
2021/10/11 02:17:41;;;;;;;5.10;0.75;;;9.90;99.90;;;;;;5017947;28;20137;-77
2021/10/11 02:20:08;;;;;;;2.50;0.10;;;9.80;99.90;;;;;;5017659;28;20025;-77
2021/10/11 02:22:33;;;;;;;2.25;0.10;;;9.80;99.90;;;;;;5016161;28;20022;-77
2021/10/11 02:24:59;;;;;;;4.57;0.28;;;9.80;99.90;;;;;;5018155;28;20029;-77
2021/10/11 02:27:24;;;;;;;1.85;0.10;;;9.70;99.90;;;;;;5017459;28;20383;-76
2021/10/11 02:29:50;;;;;;;1.67;0.30;;;9.70;99.90;;;;;;5017601;28;20064;-77
2021/10/11 02:32:16;;;;;;;8.10;0.10;;;9.60;99.90;;;;;;5017077;28;20022;-78
2021/10/11 02:34:41;;;;;;;9.60;0.20;;;9.60;99.90;;;;;;5017586;28;20040;-77
2021/10/11 02:37:07;;;;;;;4.85;0.28;;;9.50;99.90;;;;;;5019118;28;20022;-78
2021/10/11 02:39:32;;;;;;;2.47;0.10;;;9.50;99.90;;;;;;5021095;28;20022;-77
2021/10/11 02:41:58;;;;;;;3.95;0.10;;;9.40;99.90;;;;;;5021189;28;20022;-77
2021/10/11 02:44:24;;;;;;;30.88;0.55;;;9.30;99.90;;;;;;5021080;28;20030;-77
2021/10/11 02:46:49;;;;;;;6.00;0.08;;;9.30;99.90;;;;;;5020064;28;20514;-77
2021/10/11 02:49:15;;;;;;;7.43;0.10;;;9.30;99.90;;;;;;5019590;28;20026;-76
2021/10/11 02:51:41;;;;;;;3.25;0.00;;;9.20;99.90;;;;;;5021525;28;20014;-77
2021/10/11 02:54:06;;;;;;;10.43;0.10;;;9.10;99.90;;;;;;5021052;28;20076;-77
2021/10/11 02:56:32;;;;;;;7.80;0.95;;;9.10;99.90;;;;;;5021117;28;20486;-76
2021/10/11 02:58:57;;;;;;;5.07;0.10;;;9.10;99.90;;;;;;5021490;28;20060;-77
2021/10/11 03:01:23;;;;;;;17.77;0.30;;;9.10;99.90;;;;;;5019768;28;20029;-77
2021/10/11 03:03:48;;;;;;;24.10;0.22;;;9.00;99.90;;;;;;5019567;28;20029;-78
2021/10/11 03:06:14;;;;;;;4.63;0.30;;;8.90;99.90;;;;;;5021124;28;20386;-75
2021/10/11 03:08:40;;;;;;;8.02;0.22;;;8.90;99.90;;;;;;5020524;28;20034;-76
2021/10/11 03:11:06;;;;;;;2.58;0.10;;;8.90;99.90;;;;;;5020383;28;20033;-76
2021/10/11 03:13:31;;;;;;;10.02;0.40;;;8.80;99.90;;;;;;5019913;28;20077;-76
2021/10/11 03:15:57;;;;;;;2.58;0.10;;;8.80;99.90;;;;;;5019218;28;20034;-76
2021/10/11 03:18:23;;;;;;;2.47;0.00;;;8.90;99.90;;;;;;5020605;28;20028;-76
2021/10/11 03:20:49;;;;;;;1.38;0.17;;;8.80;99.90;;;;;;5019881;28;20093;-76
2021/10/11 03:23:14;;;;;;;5.47;0.30;;;8.80;99.90;;;;;;5020774;28;20018;-75
2021/10/11 03:25:40;;;;;;;1.08;0.15;;;8.80;99.90;;;;;;5020120;28;20447;-75
2021/10/11 03:28:06;;;;;;;2.58;0.10;;;8.80;99.90;;;;;;5018612;28;20364;-76
2021/10/11 03:30:32;;;;;;;6.78;0.10;;;8.80;99.90;;;;;;5020128;28;20625;-78
2021/10/11 03:32:59;;;;;;;2.75;0.10;;;8.80;99.90;;;;;;5019831;28;20018;-76
2021/10/11 03:35:25;;;;;;;4.93;0.00;;;8.80;99.90;;;;;;5020237;28;20467;-76
2021/10/11 03:37:51;;;;;;;3.33;0.08;;;8.70;99.90;;;;;;5018175;28;20026;-76
2021/10/11 03:40:17;;;;;;;1.60;0.00;;;8.70;99.90;;;;;;5018927;28;20033;-76
2021/10/11 03:42:43;;;;;;;1.75;0.03;;;8.70;99.90;;;;;;5019711;28;20502;-75
2021/10/11 03:45:09;;;;;;;4.65;0.30;;;8.70;99.90;;;;;;5018649;28;20095;-76
2021/10/11 03:47:37;;;;;;;25.38;0.47;;;8.70;99.90;;;;;;5018745;28;20467;-76
2021/10/11 03:50:03;;;;;;;11.07;0.20;;;8.60;99.90;;;;;;5019598;28;20033;-78
2021/10/11 03:52:28;;;;;;;3.08;0.00;;;8.60;99.90;;;;;;5019571;28;20081;-78
2021/10/11 03:54:54;;;;;;;4.68;0.43;;;8.50;99.90;;;;;;5019687;28;20026;-77
2021/10/11 03:57:19;;;;;;;1.95;0.00;;;8.50;99.90;;;;;;5019902;28;20703;-77
2021/10/11 03:59:45;;;;;;;1.52;0.10;;;8.50;99.90;;;;;;5017911;28;20026;-77
2021/10/11 04:02:10;;;;;;;3.03;0.43;;;8.50;99.90;;;;;;5019899;28;20438;-77
2021/10/11 04:04:36;;;;;;;15.50;0.10;;;8.50;99.90;;;;;;5019136;28;20026;-77
2021/10/11 04:07:07;;;;;;;1.75;0.00;;;8.50;99.90;;;;;;5019278;28;20028;-77
2021/10/11 04:09:33;;;;;;;0.10;0.00;;;8.50;99.90;;;;;;5019960;28;20470;-77
2021/10/11 04:12:06;;;;;;;2.95;0.00;;;8.50;99.90;;;;;;5018927;28;20073;-77
2021/10/11 04:14:33;;;;;;;1.85;0.10;;;8.50;99.90;;;;;;5019892;28;20022;-77
2021/10/11 04:16:58;;;;;;;4.03;0.20;;;8.60;99.90;;;;;;5017384;28;20022;-76
2021/10/11 04:19:24;;;;;;;4.13;0.20;;;8.60;99.90;;;;;;5018695;28;20068;-76
2021/10/11 04:21:49;;;;;;;3.13;0.00;;;8.70;99.90;;;;;;5019221;28;20075;-77
2021/10/11 04:24:15;;;;;;;14.50;0.73;;;8.80;99.90;;;;;;5019832;28;20026;-76
2021/10/11 04:26:40;;;;;;;4.05;0.10;;;8.80;99.90;;;;;;5018563;28;20025;-77
2021/10/11 04:29:06;;;;;;;2.50;0.30;;;8.90;99.90;;;;;;5018162;28;20470;-77
2021/10/11 04:31:33;;;;;;;2.38;0.17;;;8.90;99.90;;;;;;5018011;28;20022;-76
2021/10/11 04:33:58;;;;;;;4.38;0.10;;;8.90;99.90;;;;;;5019076;28;20463;-77
2021/10/11 04:36:25;;;;;;;6.53;0.10;;;8.90;99.90;;;;;;5019164;28;20033;-77
2021/10/11 04:38:51;;;;;;;2.78;0.10;;;8.80;99.90;;;;;;5018147;28;20017;-77
2021/10/11 04:41:17;;;;;;;4.70;0.20;;;8.80;99.90;;;;;;5018368;28;20387;-77
2021/10/11 04:43:42;;;;;;;3.33;0.10;;;8.70;99.90;;;;;;5016547;28;20038;-77
2021/10/11 04:46:08;;;;;;;2.22;0.52;;;8.70;99.90;;;;;;5018550;28;20038;-77
2021/10/11 04:48:34;;;;;;;5.20;0.13;;;8.60;99.90;;;;;;5018314;28;20037;-76
2021/10/11 04:51:00;;;;;;;12.38;0.63;;;8.60;99.90;;;;;;5017072;28;20030;-76
2021/10/11 04:53:25;;;;;;;1.92;0.00;;;8.60;99.90;;;;;;5019261;28;20531;-76
2021/10/11 04:55:51;;;;;;;6.70;0.10;;;8.60;99.90;;;;;;5017295;28;20028;-77
2021/10/11 04:58:16;;;;;;;3.25;0.70;;;8.50;99.90;;;;;;5018043;28;20026;-76
2021/10/11 05:00:45;;;;;;;2.22;0.25;;;8.50;99.90;;;;;;5016596;28;20037;-77
2021/10/11 05:03:11;;;;;;;4.63;0.55;;;8.50;99.90;;;;;;5018760;28;20030;-77
2021/10/11 05:05:36;;;;;;;8.63;0.30;;;8.40;99.90;;;;;;5018231;28;20075;-77
2021/10/11 05:08:03;;;;;;;2.95;0.10;;;8.40;99.90;;;;;;5016760;28;20383;-77
2021/10/11 05:10:28;;;;;;;2.22;0.10;;;8.30;99.90;;;;;;5017543;28;20056;-77
2021/10/11 05:12:54;;;;;;;4.68;0.00;;;8.30;99.90;;;;;;5018148;28;20022;-77
2021/10/11 05:15:20;;;;;;;4.35;0.20;;;8.30;99.90;;;;;;5017236;28;20021;-77
2021/10/11 05:17:46;;;;;;;4.13;0.10;;;8.30;99.90;;;;;;5018242;28;20424;-76
2021/10/11 05:20:11;;;;;;;2.78;0.00;;;8.20;99.90;;;;;;5016669;28;20041;-76
2021/10/11 05:22:38;;;;;;;5.00;0.10;;;8.20;99.90;;;;;;5017850;28;20025;-77
2021/10/11 05:25:05;;;;;;;9.60;0.38;;;8.20;99.90;;;;;;5018055;28;20491;-78
2021/10/11 05:27:32;;;;;;;2.45;0.00;;;8.20;99.90;;;;;;5018608;28;20030;-79
2021/10/11 05:29:58;;;;;;;6.68;0.38;;;8.10;99.90;;;;;;5017412;28;20022;-77
2021/10/11 05:32:24;;;;;;;2.78;0.52;;;8.20;99.90;;;;;;5016785;28;20037;-75
2021/10/11 05:34:50;;;;;;;1.27;0.28;;;8.20;99.90;;;;;;5016359;28;20034;-77
2021/10/11 05:37:17;;;;;;;2.25;0.47;;;8.20;99.90;;;;;;5017210;28;20025;-77
2021/10/11 05:39:43;;;;;;;4.45;0.10;;;8.20;99.90;;;;;;5016662;28;20034;-77
2021/10/11 05:42:08;;;;;;;5.85;0.17;;;8.30;99.90;;;;;;5015848;28;20022;-78
2021/10/11 05:44:35;;;;;;;3.25;0.00;;;8.40;99.90;;;;;;5016109;28;20022;-79
2021/10/11 05:47:01;;;;;;;3.60;0.75;;;8.40;99.90;;;;;;5017061;28;20491;-77
2021/10/11 05:49:27;;;;;;;2.63;0.32;;;8.50;99.90;;;;;;5016318;28;20030;-77
2021/10/11 05:51:53;;;;;;;2.75;0.10;;;8.50;99.90;;;;;;5016989;28;20509;-76
2021/10/11 05:54:18;;;;;;;1.75;0.30;;;8.60;99.90;;;;;;5018189;28;20157;-77
2021/10/11 05:56:44;;;;;;;2.95;0.17;;;8.60;99.90;;;;;;5017479;28;20030;-77
2021/10/11 05:59:09;;;;;;;4.75;0.68;;;8.70;99.90;;;;;;5017303;28;20030;-78
2021/10/11 06:01:36;;;;;;;2.95;0.10;;;8.80;99.90;;;;;;5016190;28;20030;-77
2021/10/11 06:04:01;;;;;;;3.22;0.20;;;8.90;99.90;;;;;;5018707;28;20030;-77
2021/10/11 06:06:27;;;;;;;5.32;0.20;;;8.90;99.90;;;;;;5017513;28;20372;-77
2021/10/11 06:08:53;;;;;;;2.13;0.00;;;9.00;99.90;;;;;;5017049;28;20105;-77
2021/10/11 06:11:19;;;;;;;0.30;0.05;;;9.10;99.90;;;;;;5018215;28;20061;-77
2021/10/11 06:13:45;;;;;;;3.25;0.57;;;9.10;99.90;;;;;;5021673;28;20014;-77
2021/10/11 06:16:11;;;;;;;1.10;0.10;;;9.20;99.90;;;;;;5021641;28;20029;-76
2021/10/11 06:18:36;;;;;;;2.42;0.20;;;9.20;99.90;;;;;;5022038;28;20038;-76
2021/10/11 06:21:02;;;;;;;1.30;0.10;;;9.30;99.90;;;;;;5020360;28;20022;-77
2021/10/11 06:23:27;;;;;;;7.20;0.20;;;9.30;99.90;;;;;;5020112;28;20029;-77
2021/10/11 06:25:53;;;;;;;4.40;0.50;;;9.40;99.90;;;;;;5021049;28;20032;-74
2021/10/11 06:28:19;;;;;;;5.07;1.00;;;9.40;99.90;;;;;;5020493;28;20033;-73
2021/10/11 06:30:46;;;;;;;2.72;0.55;;;9.40;99.90;;;;;;5021707;28;20018;-74
2021/10/11 06:33:13;;;;;;;3.72;0.25;;;9.40;99.90;;;;;;5019011;28;20479;-73
2021/10/11 06:35:39;;;;;;;2.10;0.60;;;9.50;99.90;;;;;;5019893;28;20093;-73
2021/10/11 06:38:04;;;;;;;4.20;0.20;;;9.50;99.90;;;;;;5020747;28;20057;-73
2021/10/11 06:40:30;;;;;;;9.88;0.40;;;9.60;99.90;;;;;;5019724;28;20034;-73
2021/10/11 06:42:56;;;;;;;4.15;0.40;;;9.70;99.90;;;;;;5020632;28;20021;-73
2021/10/11 06:45:21;;;;;;;4.68;0.80;;;9.70;99.90;;;;;;5020096;28;21501;-73
2021/10/11 06:47:47;;;;;;;1.98;0.10;;;9.80;99.90;;;;;;5019943;28;20053;-73
2021/10/11 06:50:13;;;;;;;3.45;0.10;;;9.80;99.90;;;;;;5020356;28;20025;-74
2021/10/11 06:52:39;;;;;;;3.88;0.30;;;9.90;99.90;;;;;;5019519;28;20092;-73
2021/10/11 06:55:05;;;;;;;2.67;1.17;;;9.90;99.90;;;;;;5020902;28;20026;-73
2021/10/11 06:57:31;;;;;;;2.75;0.40;;;9.90;99.90;;;;;;5019055;28;20026;-73
2021/10/11 06:59:56;;;;;;;5.22;0.45;;;10.00;99.90;;;;;;5019964;28;20029;-73
2021/10/11 07:02:22;;;;;;;5.60;0.47;;;10.10;99.90;;;;;;5019762;28;20074;-75
2021/10/11 07:04:54;;;;;;;4.47;0.25;;;10.10;99.90;;;;;;5018942;28;20048;-73
2021/10/11 07:07:22;;;;;;;4.72;0.68;;;10.10;99.90;;;;;;5019273;28;20032;-73
2021/10/11 07:09:48;;;;;;;5.10;0.30;;;10.20;99.90;;;;;;5020826;28;20356;-73
2021/10/11 07:12:13;;;;;;;4.25;0.45;;;10.20;99.90;;;;;;5020402;28;20113;-73
2021/10/11 07:14:39;;;;;;;3.90;0.98;;;10.20;99.90;;;;;;5020773;28;20530;-73
2021/10/11 07:17:04;;;;;;;6.35;0.80;;;10.30;99.90;;;;;;5019363;28;20030;-73
2021/10/11 07:19:30;;;;;;;1.63;0.17;;;10.30;99.90;;;;;;5020583;28;20030;-73
2021/10/11 07:21:56;;;;;;;8.30;0.98;;;10.40;99.90;;;;;;5020319;28;20030;-73
2021/10/11 07:24:22;;;;;;;2.33;0.45;;;10.40;99.90;;;;;;5017622;28;20518;-73
2021/10/11 07:26:47;;;;;;;3.65;0.45;;;10.50;99.90;;;;;;5020407;28;20426;-73
2021/10/11 07:29:13;;;;;;;8.15;0.77;;;10.50;99.90;;;;;;5018560;28;20380;-73
2021/10/11 07:31:39;;;;;;;11.63;1.27;;;10.60;99.90;;;;;;5020232;28;20483;-73
2021/10/11 07:34:05;;;;;;;18.20;0.88;;;10.70;99.90;;;;;;5019762;28;20018;-73
2021/10/11 07:36:33;;;;;;;5.47;0.70;;;10.80;99.90;;;;;;5019111;28;20022;-73
2021/10/11 07:39:00;;;;;;;8.48;0.82;;;10.90;99.90;;;;;;5018805;28;20022;-73
2021/10/11 07:41:26;;;;;;;2.97;0.55;;;11.10;99.90;;;;;;5019357;28;20038;-73
2021/10/11 07:43:51;;;;;;;9.27;0.73;;;11.20;99.90;;;;;;5018210;28;20034;-73
2021/10/11 07:46:17;;;;;;;10.27;0.80;;;11.30;99.90;;;;;;5019587;28;20152;-73
2021/10/11 07:48:43;;;;;;;10.93;1.17;;;11.40;99.90;;;;;;5018906;28;20610;-73
2021/10/11 07:51:08;;;;;;;3.20;0.22;;;11.50;99.90;;;;;;5020322;28;20045;-73
2021/10/11 07:53:34;;;;;;;9.50;0.70;;;11.60;99.90;;;;;;5019679;28;20022;-73
2021/10/11 07:55:59;;;;;;;6.28;0.65;;;11.70;99.90;;;;;;5020065;28;20022;-73
2021/10/11 07:58:25;;;;;;;5.55;0.50;;;11.80;99.90;;;;;;5018535;28;20052;-73
2021/10/11 08:00:50;;;;;;;6.22;0.28;;;11.90;99.90;;;;;;5019309;28;20033;-73
2021/10/11 08:03:17;;;;;;;5.47;0.73;;;12.00;99.90;;;;;;5018016;28;20021;-73
2021/10/11 08:05:44;;;;;;;8.02;0.45;;;12.00;99.90;;;;;;5017949;28;20398;-73
2021/10/11 08:08:10;;;;;;;7.68;0.90;;;12.10;99.90;;;;;;5017616;28;20033;-73
2021/10/11 08:10:35;;;;;;;4.47;0.30;;;12.20;99.90;;;;;;5019890;28;20031;-73
2021/10/11 08:13:01;;;;;;;5.00;0.45;;;12.30;99.90;;;;;;5019228;28;20471;-73
2021/10/11 08:15:27;;;;;;;5.95;1.30;;;12.40;99.90;;;;;;5019109;28;20018;-74
2021/10/11 08:17:53;;;;;;;3.58;0.75;;;12.50;99.90;;;;;;5019120;28;20426;-73
2021/10/11 08:20:19;;;;;;;30.27;0.63;;;12.70;99.90;;;;;;5019129;28;20076;-73
2021/10/11 08:22:45;;;;;;;3.90;0.50;;;12.70;99.90;;;;;;5019217;28;20475;-73
2021/10/11 08:25:12;;;;;;;7.20;0.50;;;12.80;99.90;;;;;;5018870;28;20088;-74
2021/10/11 08:27:37;;;;;;;5.25;0.50;;;12.90;99.90;;;;;;5017616;28;20026;-74
2021/10/11 08:30:05;;;;;;;5.40;0.35;;;12.80;99.90;;;;;;5018975;28;20037;-74
2021/10/11 08:32:32;;;;;;;5.28;0.20;;;12.90;99.90;;;;;;5017678;28;20036;-74
2021/10/11 08:34:58;;;;;;;5.82;0.32;;;12.80;99.90;;;;;;5018192;28;20014;-74
2021/10/11 08:37:24;;;;;;;5.65;0.10;;;12.80;99.90;;;;;;5018945;28;20018;-74
2021/10/11 08:39:50;;;;;;;5.82;0.65;;;12.80;99.90;;;;;;5018699;28;20053;-74
2021/10/11 08:42:17;;;;;;;8.43;0.10;;;12.90;99.90;;;;;;5018950;28;20478;-74
2021/10/11 08:44:44;;;;;;;3.40;0.45;;;12.90;99.90;;;;;;5018669;28;20038;-74
2021/10/11 08:47:11;;;;;;;2.70;0.20;;;13.00;99.90;;;;;;5019002;28;20030;-74
2021/10/11 08:49:44;;;;;;;7.82;0.80;;;13.10;99.90;;;;;;5018960;28;20117;-74
2021/10/11 08:52:10;;;;;;;5.32;0.05;;;13.20;99.90;;;;;;5018199;28;20041;-74
2021/10/11 08:54:36;;;;;;;7.95;0.63;;;13.30;99.90;;;;;;5018989;28;20044;-74
2021/10/11 08:57:05;;;;;;;6.88;0.10;;;13.40;99.90;;;;;;5018638;28;20038;-74
2021/10/11 08:59:31;;;;;;;7.82;0.55;;;13.50;99.90;;;;;;5017567;28;20387;-74
2021/10/11 09:02:09;;;;;;;4.93;0.20;;;13.50;99.90;;;;;;5018294;28;20026;-74
2021/10/11 09:04:57;;;;;;;9.32;0.35;;;13.60;99.90;;;;;;5017128;28;20021;-74
2021/10/11 09:07:25;;;;;;;3.28;0.10;;;13.80;99.90;;;;;;5018756;28;20099;-74
2021/10/11 09:09:52;;;;;;;6.43;0.55;;;14.00;99.90;;;;;;5018212;28;20026;-74
2021/10/11 09:12:22;;;;;;;4.28;0.25;;;14.20;99.90;;;;;;5017018;28;20129;-74
2021/10/11 09:15:07;;;;;;;4.18;0.20;;;14.30;99.90;;;;;;5018444;28;20022;-74
2021/10/11 09:17:39;;;;;;;13.05;0.93;;;14.40;99.90;;;;;;5018696;28;20048;-74
2021/10/11 09:20:08;;;;;;;6.15;0.52;;;14.50;99.90;;;;;;5018548;28;20061;-74
2021/10/11 09:22:35;;;;;;;5.18;0.17;;;14.50;99.90;;;;;;5016848;28;20398;-74
2021/10/11 09:25:02;;;;;;;3.40;0.00;;;14.60;99.90;;;;;;5018594;28;20018;-74
2021/10/11 09:27:28;;;;;;;4.57;0.00;;;14.60;99.90;;;;;;5018776;28;20029;-74
2021/10/11 09:29:53;;;;;;;4.72;0.15;;;14.60;99.90;;;;;;5018140;28;20093;-74
2021/10/11 09:32:19;;;;;;;3.30;0.00;;;14.60;99.90;;;;;;5017921;28;20111;-74
2021/10/11 09:34:45;;;;;;;3.35;0.63;;;14.70;99.90;;;;;;5018346;28;20068;-74
2021/10/11 09:37:15;;;;;;;5.72;0.90;;;14.70;99.90;;;;;;5018292;28;20510;-74
2021/10/11 09:39:42;;;;;;;3.95;0.00;;;14.80;99.90;;;;;;5017864;28;20046;-74
2021/10/11 09:42:13;;;;;;;2.95;0.32;;;14.90;99.90;;;;;;5018043;28;20056;-74
2021/10/11 09:44:50;;;;;;;9.93;0.80;;;15.00;99.90;;;;;;5018417;28;20033;-74
2021/10/11 09:47:36;;;;;;;2.85;0.00;;;15.10;99.90;;;;;;5017328;28;20383;-74
2021/10/11 09:50:08;;;;;;;7.00;0.55;;;15.20;99.90;;;;;;5018162;28;20025;-74
2021/10/11 09:52:35;;;;;;;3.60;0.60;;;15.20;99.90;;;;;;5016320;28;20014;-74
2021/10/11 09:55:02;;;;;;;7.13;0.20;;;15.20;99.90;;;;;;5016691;28;20128;-74
2021/10/11 09:57:31;;;;;;;4.18;0.47;;;15.30;99.90;;;;;;5017373;28;20076;-74
2021/10/11 10:00:07;;;;;;;3.30;0.00;;;15.60;99.90;;;;;;5017630;28;20026;-74
2021/10/11 10:02:38;;;;;;;4.85;0.28;;;15.80;99.90;;;;;;5017910;28;20026;-74
2021/10/11 10:05:06;;;;;;;4.95;0.28;;;15.90;99.90;;;;;;5018300;28;20028;-74
2021/10/11 10:07:34;;;;;;;8.80;0.52;;;16.00;99.90;;;;;;5016522;28;20025;-74
2021/10/11 10:10:05;;;;;;;3.53;0.52;;;16.10;99.90;;;;;;5017899;28;20069;-74
2021/10/11 10:12:32;;;;;;;4.43;0.10;;;16.20;99.90;;;;;;5016901;28;20018;-74
2021/10/11 10:15:04;;;;;;;10.20;0.68;;;16.30;99.90;;;;;;5016087;28;20010;-74
2021/10/11 10:17:36;;;;;;;6.70;0.55;;;16.40;99.90;;;;;;5017585;28;20046;-74
2021/10/11 10:20:11;;;;;;;4.72;0.10;;;16.50;99.90;;;;;;5017195;28;20041;-74
2021/10/11 10:22:39;;;;;;;6.13;0.00;;;16.60;99.90;;;;;;5017977;28;20030;-74
2021/10/11 10:25:05;;;;;;;4.72;0.00;;;16.70;99.90;;;;;;5017589;28;20026;-74
2021/10/11 10:27:36;;;;;;;5.35;0.00;;;16.60;99.90;;;;;;5017751;28;20040;-74
2021/10/11 10:30:14;;;;;;;6.15;0.10;;;16.50;99.90;;;;;;5014252;28;20041;-75
2021/10/11 10:32:55;;;;;;;3.53;0.15;;;16.30;99.90;;;;;;5017396;28;20111;-75
2021/10/11 10:35:21;;;;;;;4.55;0.08;;;16.20;99.90;;;;;;5017460;28;20018;-75
2021/10/11 10:37:47;;;;;;;5.45;0.00;;;16.00;99.90;;;;;;5017800;28;20033;-75
2021/10/11 10:40:16;;;;;;;2.58;0.00;;;15.80;99.90;;;;;;5017505;28;20026;-75
2021/10/11 10:42:42;;;;;;;;;;;15.60;99.90;;;;;;5017936;28;20026;-75
2021/10/11 10:45:18;;;;;;;1.48;0.00;;;15.40;99.90;;;;;;5018257;28;19913;-75
2021/10/11 10:47:44;;;;;;;1.02;0.10;;;15.40;99.90;;;;;;5017886;28;20030;-75
2021/10/11 10:50:32;;;;;;;3.83;0.00;;;15.40;99.90;;;;;;5017893;28;20386;-75
2021/10/11 10:53:01;;;;;;;1.38;0.00;;;15.40;99.90;;;;;;5017458;28;20026;-75
2021/10/11 10:55:27;;;;;;;;;;;15.50;99.90;;;;;;5016170;28;20022;-75
2021/10/11 10:57:57;;;;;;;1.40;0.00;;;15.50;99.90;;;;;;5018467;28;19920;-75
2021/10/11 11:00:23;;;;;;;1.38;0.20;;;15.60;99.90;;;;;;5019695;28;20037;-75
2021/10/11 11:02:51;;;;;;;1.75;0.00;;;15.70;99.90;;;;;;5021628;28;20387;-75
2021/10/11 11:05:19;;;;;;;1.17;0.00;;;15.70;99.90;;;;;;5020808;28;20034;-75
2021/10/11 11:07:50;;;;;;;3.20;0.20;;;15.80;99.90;;;;;;5019790;28;20089;-75
2021/10/11 11:10:30;;;;;;;3.40;0.00;;;15.90;99.90;;;;;;5021053;28;20030;-75
2021/10/11 11:13:02;;;;;;;2.17;0.45;;;16.00;99.90;;;;;;5020350;28;20029;-75
2021/10/11 11:15:39;;;;;;;2.25;0.22;;;16.00;99.90;;;;;;5021266;28;20394;-75
2021/10/11 11:18:07;;;;;;;2.22;0.00;;;16.00;99.90;;;;;;5020481;28;20018;-75
2021/10/11 11:20:42;;;;;;;1.75;0.00;;;16.20;99.90;;;;;;5019418;28;20022;-75
2021/10/11 11:23:09;;;;;;;2.10;0.10;;;16.50;99.90;;;;;;5020111;28;20026;-75
2021/10/11 11:25:46;;;;;;;2.28;0.00;;;16.70;99.90;;;;;;5019069;28;20471;-75
2021/10/11 11:28:23;;;;;;;2.08;0.22;;;16.90;99.90;;;;;;5018748;28;20018;-75
2021/10/11 11:30:54;;;;;;;3.15;0.10;;;17.10;99.90;;;;;;5016378;28;20022;-75
2021/10/11 11:33:22;;;;;;;3.83;0.00;;;17.30;99.90;;;;;;5016348;28;20030;-75
2021/10/11 11:35:56;;;;;;;3.92;0.05;;;17.20;99.90;;;;;;5014720;28;20022;-76
2021/10/11 11:38:28;;;;;;;1.40;0.10;;;17.20;99.90;;;;;;5018270;28;20048;-76
2021/10/11 11:41:00;;;;;;;4.93;0.28;;;17.30;99.90;;;;;;5019361;28;20113;-74
2021/10/11 11:43:29;;;;;;;3.17;0.00;;;17.50;99.90;;;;;;5018859;28;20038;-74
2021/10/11 11:45:58;;;;;;;2.30;0.08;;;17.70;99.90;;;;;;5019595;28;20024;-74
2021/10/11 11:48:29;;;;;;;2.47;0.10;;;17.90;99.90;;;;;;5020000;28;20036;-74
2021/10/11 11:51:06;;;;;;;2.50;0.10;;;18.10;99.90;;;;;;5020134;28;20018;-74
2021/10/11 11:53:35;;;;;;;2.30;0.32;;;18.40;99.90;;;;;;5019831;28;20022;-74
2021/10/11 11:56:02;;;;;;;;;;;18.50;99.90;;;;;;5020556;28;20053;-74
2021/10/11 11:58:37;;;;;;;1.23;0.00;;;18.60;99.90;;;;;;5019372;28;20346;-74
2021/10/11 12:01:24;;;;;;;2.50;0.00;;;18.80;99.90;;;;;;5019726;28;20426;-74
2021/10/11 12:03:58;;;;;;;1.85;0.10;;;18.90;99.90;;;;;;5019694;28;20037;-74
2021/10/11 12:06:28;;;;;;;2.95;0.00;;;19.10;99.90;;;;;;5019344;28;20026;-74
2021/10/11 12:08:54;;;;;;;2.20;0.00;;;19.30;99.90;;;;;;5019975;28;20034;-74
2021/10/11 12:11:20;;;;;;;2.25;0.10;;;19.50;99.90;;;;;;5020089;28;20026;-74
2021/10/11 12:13:46;;;;;;;0.75;0.28;;;19.70;99.90;;;;;;5019720;28;20049;-74
2021/10/11 12:16:14;;;;;;;2.28;0.00;;;19.80;99.90;;;;;;5019729;28;20061;-74
2021/10/11 12:18:41;;;;;;;3.30;0.00;;;19.90;99.90;;;;;;5020162;28;20032;-74
2021/10/11 12:21:25;;;;;;;2.35;0.15;;;19.80;99.90;;;;;;5019629;28;20037;-74
2021/10/11 12:23:53;;;;;;;2.25;0.00;;;20.00;99.90;;;;;;5018720;28;20093;-74
2021/10/11 12:26:20;;;;;;;4.18;0.10;;;20.00;99.70;;;;;;5019924;28;20026;-74
2021/10/11 12:28:57;;;;;;;3.28;0.30;;;20.00;97.80;;;;;;5020306;28;20036;-75
2021/10/11 12:31:26;;;;;;;2.10;0.00;;;20.20;97.80;;;;;;5019281;28;20026;-74
2021/10/11 12:34:00;;;;;;;5.88;0.22;;;20.00;95.70;;;;;;5018806;28;20261;-74
2021/10/11 12:36:27;;;;;;;0.95;0.00;;;19.70;97.40;;;;;;5019234;28;20026;-74
2021/10/11 12:38:52;;;;;;;1.42;0.00;;;19.40;98.70;;;;;;5019323;28;20030;-74
2021/10/11 12:41:18;;;;;;;2.22;0.20;;;19.40;98.60;;;;;;5018563;28;20025;-73
2021/10/11 12:43:59;;;;;;;5.35;0.10;;;19.40;99.90;;;;;;5019563;28;20037;-73
2021/10/11 12:46:25;;;;;;;3.40;0.00;;;19.60;99.90;;;;;;5019052;28;20033;-73
2021/10/11 12:48:53;;;;;;;3.25;0.10;;;19.70;99.90;;;;;;5019824;28;20030;-73
2021/10/11 12:51:33;;;;;;;5.50;0.20;;;19.60;98.70;;;;;;5018409;28;20054;-73